• Join FlightAware (Why Join?)
  • Login
  • US Flag 
02:23PM EDT


 

Airport Tracker/Info


-or-


 

Live Flight TrackerFlight Track Log ✈ VH-VGR ✈ 27-Apr-2012 ✈ YMML / MEL - YBCG / OOL

Flight Track Log - Related Links

Times and Time Zones

All times are in EDT time to prevent confusion due to time zone crossing. See the VH-VGR flight status page for this flight to view local times or setup timezone preferences in your user account.

Time Position Orientation Groundspeed Altitude Reporting Facility
EDT Latitude Longitude Course Direction KTS MPH feet Rate Location/Type
03:06AM -37.6582 144.7850 274° West 165 190 2,100  Level Aus ATC (RADAR)
03:07AM -37.6562 144.7480 321° Northwest 212 244 2,600 2,460 Climbing Aus ATC (RADAR)
03:08AM -37.5699 144.6603 27° Northeast 280 322 7,500 2,760 Climbing Aus ATC (RADAR)
03:10AM -37.4774 144.7200 47° Northeast 326 375 11,000 2,460 Climbing Aus ATC (RADAR)
03:11AM -37.3564 144.8805 46° Northeast 373 429 15,100 2,160 Climbing Aus ATC (RADAR)
03:13AM -37.2451 145.0267 46° Northeast 396 456 18,200 1,980 Climbing Aus ATC (RADAR)
03:14AM -37.1559 145.1433 44° Northeast 409 471 20,500 1,800 Climbing Aus ATC (RADAR)
03:16AM -37.0308 145.2942 39° Northeast 424 488 23,000 1,500 Climbing Aus ATC (RADAR)
03:17AM -36.9064 145.4223 39° Northeast 443 510 24,800 1,320 Climbing Aus ATC (RADAR)
03:17AM -36.8583 145.4715 39° Northeast 450 518 25,500 1,260 Climbing Aus ATC (RADAR)
03:19AM -36.6612 145.6731 39° Northeast 465 535 28,000 1,140 Climbing Aus ATC (RADAR)
03:21AM -36.5001 145.8376 39° Northeast 480 552 29,700 1,200 Climbing Aus ATC (RADAR)
03:22AM -36.3454 145.9945 39° Northeast 476 548 31,800 1,440 Climbing Aus ATC (RADAR)
03:24AM -36.1781 146.1640 39° Northeast 461 531 34,300 1,140 Climbing Aus ATC (RADAR)
03:25AM -36.0551 146.2883 39° Northeast 462 532 35,200 300 Climbing Aus ATC (RADAR)
03:27AM -35.9059 146.4363 39° Northeast 459 528 35,200  Level Aus ATC (RADAR)
03:28AM -35.7567 146.5844 39° Northeast 463 533 35,200  Level Aus ATC (RADAR)
03:29AM -35.7065 146.6344 39° Northeast 463 533 35,200  Level Aus ATC (RADAR)
03:31AM -35.5207 146.8164 39° Northeast 467 537 35,200  Level Aus ATC (RADAR)
03:32AM -35.3870 146.9479 38° Northeast 458 527 35,200  Level Aus ATC (RADAR)
03:33AM -35.3204 147.0128 39° Northeast 458 527 35,200  Level Aus ATC (RADAR)
03:34AM -35.1716 147.1582 38° Northeast 454 522 35,200  Level Aus ATC (RADAR)
03:36AM -35.0070 147.3170 38° Northeast 452 520 35,200 60 Level Aus ATC (RADAR)
03:37AM -34.8592 147.4596 38° Northeast 454 522 35,400 300 Climbing Aus ATC (RADAR)
03:38AM -34.8091 147.5076 38° Northeast 458 527 35,800 720 Climbing Aus ATC (RADAR)
03:39AM -34.7267 147.5869 38° Northeast 453 521 36,400 660 Climbing Aus ATC (RADAR)
03:39AM -34.6687 147.6428 38° Northeast 455 524 36,800 420 Climbing Aus ATC (RADAR)
03:40AM -34.5519 147.7537 38° Northeast 456 525 37,200 120 Climbing Aus ATC (RADAR)
03:42AM -34.4269 147.8724 38° Northeast 460 529 37,200  Level Aus ATC (RADAR)
03:43AM -34.3259 147.9679 38° Northeast 459 528 37,200  Level Aus ATC (RADAR)
03:43AM -34.2499 148.0396 38° Northeast 460 529 37,200  Level Aus ATC (RADAR)
03:44AM -34.1908 148.0957 38° Northeast 459 528 37,200  Level Aus ATC (RADAR)
03:45AM -34.0975 148.1832 38° Northeast 461 531 37,200  Level Aus ATC (RADAR)
03:46AM -34.0296 148.2469 38° Northeast 462 532 37,200  Level Aus ATC (RADAR)
03:46AM -33.9446 148.3264 38° Northeast 465 535 37,200  Level Aus ATC (RADAR)
03:47AM -33.8466 148.4173 38° Northeast 466 536 37,300  Climbing Aus ATC (RADAR)
03:49AM -33.7286 148.5268 38° Northeast 461 531 37,200 -60 Descending Aus ATC (RADAR)
03:49AM -33.6672 148.5844 37° Northeast 450 518 37,200  Level Aus ATC (RADAR)
03:50AM -33.5800 148.6647 38° Northeast 451 519 37,200  Level Aus ATC (RADAR)
03:51AM -33.4896 148.7483 38° Northeast 451 519 37,200  Level Aus ATC (RADAR)
03:52AM -33.3841 148.8457 37° Northeast 444 511 37,200  Level Aus ATC (RADAR)
03:53AM -33.3307 148.8945 38° Northeast 442 509 37,200  Level Aus ATC (RADAR)
03:53AM -33.2525 148.9666 37° Northeast 454 522 37,200 60 Level Aus ATC (RADAR)
03:54AM -33.1942 149.0199 37° Northeast 455 524 37,300  Climbing Aus ATC (RADAR)
03:55AM -33.1063 149.1001 38° Northeast 448 516 37,200  Descending Aus ATC (RADAR)
03:55AM -33.0440 149.1573 37° Northeast 453 521 37,300  Climbing Aus ATC (RADAR)
03:57AM -32.9030 149.2852 37° Northeast 451 519 37,200 -60 Descending Aus ATC (RADAR)
03:58AM -32.8241 149.3561 37° Northeast 446 513 37,200  Level Aus ATC (RADAR)
03:58AM -32.7410 149.4312 37° Northeast 446 513 37,200  Level Aus ATC (RADAR)
03:59AM -32.6822 149.4841 37° Northeast 449 517 37,200 60 Level Aus ATC (RADAR)
04:00AM -32.5946 149.5627 36° Northeast 452 520 37,300  Climbing Aus ATC (RADAR)
04:02AM -32.4472 149.6889 35° Northeast 441 507 37,200 -60 Descending Aus ATC (RADAR)
04:02AM -32.3630 149.7593 35° Northeast 441 507 37,200  Level Aus ATC (RADAR)
04:03AM -32.2660 149.8407 35° Northeast 446 513 37,200  Level Aus ATC (RADAR)
04:04AM -32.2070 149.8902 35° Northeast 448 516 37,200  Level Aus ATC (RADAR)
04:05AM -32.1141 149.9673 35° Northeast 446 513 37,200  Level Aus ATC (RADAR)
04:06AM -32.0264 150.0406 35° Northeast 439 505 37,300  Climbing Aus ATC (RADAR)
04:06AM -31.9387 150.1139 35° Northeast 440 506 37,200 -120 Descending Aus ATC (RADAR)
04:07AM -31.8887 150.1545 36° Northeast 437 503 37,200  Level Aus ATC (RADAR)
04:07AM -31.8308 150.2032 35° Northeast 440 506 37,200  Level Aus ATC (RADAR)
04:08AM -31.7644 150.2581 44° Northeast 441 507 37,200  Level Aus ATC (RADAR)
04:09AM -31.7119 150.3185 44° Northeast 456 525 37,200  Level Aus ATC (RADAR)
04:09AM -31.6439 150.3958 44° Northeast 456 525 37,200 60 Level Aus ATC (RADAR)
04:10AM -31.5985 150.4475 44° Northeast 457 526 37,300 60 Climbing Aus ATC (RADAR)
04:11AM -31.5457 150.5076 44° Northeast 457 526 37,300 -60 Level Aus ATC (RADAR)
04:12AM -31.4329 150.6358 44° Northeast 453 521 37,200  Descending Aus ATC (RADAR)
04:13AM -31.3575 150.7209 44° Northeast 454 522 37,300  Climbing Aus ATC (RADAR)
04:13AM -31.3051 150.7799 44° Northeast 451 519 37,200 -120 Descending Aus ATC (RADAR)
04:14AM -31.2603 150.8310 44° Northeast 452 520 37,200 60 Level Aus ATC (RADAR)
04:14AM -31.2006 150.8979 43° Northeast 447 514 37,300 60 Climbing Aus ATC (RADAR)
04:15AM -31.1673 150.9347 44° Northeast 434 499 37,300 -120 Level Aus ATC (RADAR)
04:16AM -31.0838 151.0293 44° Northeast 436 502 37,200 -60 Descending Aus ATC (RADAR)
04:17AM -31.0218 151.0985 44° Northeast 428 493 37,200  Level Aus ATC (RADAR)
04:18AM -30.9410 151.1884 44° Northeast 430 495 37,200  Level Aus ATC (RADAR)
04:19AM -30.8528 151.2871 44° Northeast 432 497 37,200  Level Aus ATC (RADAR)
04:20AM -30.7232 151.4315 43° Northeast 444 511 37,200  Level Aus ATC (RADAR)
04:21AM -30.6264 151.5381 43° Northeast 442 509 37,200  Level Aus ATC (RADAR)
04:22AM -30.5557 151.6160 43° Northeast 432 497 37,200  Level Aus ATC (RADAR)
04:23AM -30.4700 151.7103 43° Northeast 445 512 37,200  Level Aus ATC (RADAR)
04:23AM -30.4068 151.7794 43° Northeast 433 498 37,200  Level Aus ATC (RADAR)
04:24AM -30.3544 151.8369 43° Northeast 436 502 37,200  Level Aus ATC (RADAR)
04:25AM -30.2794 151.9191 44° Northeast 436 502 37,200  Level Aus ATC (RADAR)
04:26AM -30.1854 152.0224 43° Northeast 449 517 37,200  Level Aus ATC (RADAR)
04:27AM -30.0974 152.1177 43° Northeast 441 507 37,200  Level Aus ATC (RADAR)
04:28AM -29.9905 152.2346 44° Northeast 443 510 37,200  Level Aus ATC (RADAR)
04:29AM -29.8953 152.3392 43° Northeast 459 528 37,200  Level Aus ATC (RADAR)
04:30AM -29.8365 152.4013 44° Northeast 446 513 37,200 -120 Level Aus ATC (RADAR)
04:30AM -29.7786 152.4653 43° Northeast 466 536 37,100 -1,200 Descending Aus ATC (RADAR)
04:31AM -29.7007 152.5496 43° Northeast 461 531 35,500 -2,100 Descending Aus ATC (RADAR)
04:32AM -29.5985 152.6600 43° Northeast 470 541 33,100 -2,220 Descending Aus ATC (RADAR)
04:33AM -29.5278 152.7359 42° Northeast 463 533 31,500 -2,280 Descending Aus ATC (RADAR)
04:33AM -29.4845 152.7802 44° Northeast 439 505 30,300 -2,100 Descending Aus ATC (RADAR)
04:34AM -29.4049 152.8680 43° Northeast 448 516 28,700 -1,920 Descending Aus ATC (RADAR)
04:35AM -29.3162 152.9617 43° Northeast 427 491 26,800 -1,860 Descending Aus ATC (RADAR)
04:36AM -29.2513 153.0305 43° Northeast 422 486 25,500 -1,860 Descending Aus ATC (RADAR)
04:36AM -29.2093 153.0750 42° Northeast 410 472 24,500 -1,800 Descending Aus ATC (RADAR)
04:38AM -29.1232 153.1636 43° Northeast 382 440 22,700 -1,680 Descending Aus ATC (RADAR)
04:38AM -29.0504 153.2409 43° Northeast 370 426 21,200 -1,740 Descending Aus ATC (RADAR)
04:39AM -28.9888 153.3076 43° Northeast 384 442 19,800 -1,800 Descending Aus ATC (RADAR)
04:40AM -28.9357 153.3632 43° Northeast 390 449 18,700 -1,740 Descending Aus ATC (RADAR)
04:41AM -28.8622 153.4406 37° Northeast 395 455 17,100 -1,740 Descending Aus ATC (RADAR)
04:41AM -28.8102 153.4848 18° North 361 415 16,000 -1,560 Descending Aus ATC (RADAR)
04:43AM -28.6841 153.5321 21° North 339 390 14,000 -1,500 Descending Aus ATC (RADAR)
04:44AM -28.6048 153.5674 21° North 323 372 12,700 -1,500 Descending Aus ATC (RADAR)
04:44AM -28.5472 153.5931 13° North 325 374 11,700 -1,560 Descending Aus ATC (RADAR)
04:45AM -28.4784 153.6116 North 318 366 10,500 -1,380 Descending Aus ATC (RADAR)
04:47AM -28.3564 153.6306 North 286 329 8,700 -1,380 Descending Aus ATC (RADAR)
04:47AM -28.3027 153.6389 North 289 333 7,600 -1,140 Descending Aus ATC (RADAR)
04:48AM -28.2575 153.6457 350° North 278 320 7,300 -1,080 Descending Aus ATC (RADAR)
04:49AM -28.1940 153.6326 347° North 280 322 6,100 -1,320 Descending Aus ATC (RADAR)
04:50AM -28.1192 153.6131 348° North 269 310 4,900 -900 Descending Aus ATC (RADAR)
04:51AM -28.0573 153.5978 321° Northwest 238 274 4,400 -780 Descending Aus ATC (RADAR)
04:52AM -28.0069 153.5509 272° West 217 250 3,400 -720 Descending Aus ATC (RADAR)
04:53AM -28.0046 153.4720 200° South 185 213 2,700 -600 Descending Aus ATC (RADAR)
04:54AM -28.0389 153.4575 164° South 160 184 2,200 -480 Descending Aus ATC (RADAR)
04:55AM -28.0697 153.4674 162° South 151 174 2,000 -600 Descending Aus ATC (RADAR)
04:55AM -28.0994 153.4782 174° South 129 148 1,300 -840 Descending Aus ATC (RADAR)
04:56AM -28.1264 153.4812 150° Southeast 129 148 700 -720 Descending Aus ATC (RADAR)
04:57AM -28.1421 153.4913 150° Southeast 126 145 400 -600 Descending Aus ATC (RADAR)